KSSF/SSF METAR and TAF weather

Enter ICAO airport designator
Station Type Date Time Source
KSSF METAR 2019/10/22 15:53 UTC NOAA

KSSF 221553Z 09006KT 10SM CLR 22/02 A3020 RMK AO2 SLP221 T02220017


Station Type Date Time Source
KSSF Decoded METAR 2019/10/22 15:53 UTC NOAA

SAN ANTONIO STINSON MUNI, TX, United States (KSSF) 29-20N 098-28W 176M
Oct 22, 2019 - 11:53 AM EDT / 2019.10.22 1553 UTC
Wind: from the E (090 degrees) at 7 MPH (6 KT):0
Visibility: 10 mile(s):0
Sky conditions: clear
Temperature: 72.0 F (22.2 C)
Dew Point: 35.1 F (1.7 C)
Relative Humidity: 25%
Pressure (altimeter): 30.2 in. Hg (1022 hPa)
ob: KSSF 221553Z 09006KT 10SM CLR 22/02 A3020 RMK AO2 SLP221 T02220017
cycle: 16

Station Type Date Time Source
KSSF TAF 2019/10/22 12:30 UTC NOAA

TAF KSSF 221127Z 2212/2312 02005KT P6SM SKC
FM221800 09009KT P6SM SKC
FM230100 13004KT P6SM SKC

Example: see airport list